Terminal Aerodrome Forecast
Issued by NWS Binghamton, NY

Home | Current Version | Previous Version | Text Only | Print | Product List | Glossary On
Versions: 1 2 3 4 5 6 7 8 9 10 11 12 13 14 15 16 17 18 19
000
FTUS41 KBGM 240546
TAFAVP
TAF
KAVP 240546Z 2406/2506 18008KT P6SM OVC100
     FM241200 20010KT P6SM OVC045 WS020/23040KT
     FM241400 20010KT 4SM -RA BR OVC025 WS020/23040KT
      TEMPO 2414/2415 4SM -FZRA BR
     FM241700 21012G22KT P6SM SCT015 OVC025
     FM250000 23005KT P6SM OVC012=

USA.gov is the U.S. government's official web portal to all federal, state and local government web resources and services.